Time;durP1;ratioP1;P1;durP2;ratioP2;P2;SDS_P1;SDS_P2;PMS_P1;PMS_P2;Temp;Humidity;BMP_temperature;BMP_pressure;BME280_temperature;BME280_humidity;BME280_pressure;Samples;Min_cycle;Max_cycle;Signal;HPM_P1;HPM_P2
2022/06/07 00:01:37;;;;;;;0.30;0.30;;;15.70;99.90;;;;;;5113975;28;20425;-71
2022/06/07 00:04:03;;;;;;;0.40;0.40;;;15.70;99.90;;;;;;5113943;28;20913;-69
2022/06/07 00:06:29;;;;;;;0.30;0.30;;;15.70;99.90;;;;;;5113884;28;20273;-69
2022/06/07 00:08:55;;;;;;;0.30;0.30;;;15.80;99.90;;;;;;5114035;28;20413;-70
2022/06/07 00:11:21;;;;;;;0.30;0.30;;;15.70;99.90;;;;;;5114053;28;20394;-69
2022/06/07 00:13:47;;;;;;;0.30;0.30;;;15.70;99.90;;;;;;5113647;28;20167;-69
2022/06/07 00:16:14;;;;;;;0.40;0.40;;;15.60;99.90;;;;;;5114153;28;20408;-69
2022/06/07 00:18:40;;;;;;;0.30;0.30;;;15.50;99.90;;;;;;5114043;28;20474;-69
2022/06/07 00:21:07;;;;;;;0.30;0.30;;;15.50;99.90;;;;;;5113955;28;20412;-69
2022/06/07 00:23:34;;;;;;;0.30;0.30;;;15.60;99.90;;;;;;5116345;28;20182;-69
2022/06/07 00:26:00;;;;;;;0.30;0.30;;;15.60;99.90;;;;;;5118211;28;20423;-70
2022/06/07 00:28:27;;;;;;;0.40;0.40;;;15.60;99.90;;;;;;5117878;28;20456;-70
2022/06/07 00:30:53;;;;;;;0.30;0.30;;;15.60;99.90;;;;;;5117991;28;20744;-70
2022/06/07 00:33:21;;;;;;;0.30;0.30;;;15.50;99.90;;;;;;5117721;28;20413;-69
2022/06/07 00:35:47;;;;;;;0.40;0.40;;;15.60;99.90;;;;;;5117972;28;20647;-69
2022/06/07 00:38:12;;;;;;;0.30;0.30;;;15.60;99.90;;;;;;5117864;28;20416;-68
2022/06/07 00:40:39;;;;;;;0.30;0.30;;;15.50;99.90;;;;;;5117943;28;20409;-68
2022/06/07 00:43:05;;;;;;;0.30;0.30;;;15.60;99.90;;;;;;5117432;28;20187;-68
2022/06/07 00:45:31;;;;;;;0.30;0.30;;;15.50;99.90;;;;;;5117813;27;20398;-70
2022/06/07 00:47:56;;;;;;;0.30;0.30;;;15.50;99.90;;;;;;5117555;28;20441;-69
2022/06/07 00:50:45;;;;;;;0.30;0.30;;;15.50;99.90;;;;;;5117646;28;20394;-70
2022/06/07 00:53:23;;;;;;;0.40;0.40;;;15.50;99.90;;;;;;5117378;28;20184;-68
2022/06/07 00:55:49;;;;;;;0.30;0.30;;;15.40;99.90;;;;;;5117476;28;20397;-69
2022/06/07 00:58:15;;;;;;;0.30;0.30;;;15.40;99.90;;;;;;5117645;28;20408;-69
2022/06/07 01:00:41;;;;;;;0.30;0.30;;;15.40;99.90;;;;;;5117642;28;20402;-68
2022/06/07 01:03:07;;;;;;;0.60;0.60;;;15.40;99.90;;;;;;5117129;28;20481;-69
2022/06/07 01:05:32;;;;;;;0.30;0.30;;;15.50;99.90;;;;;;5117468;28;20176;-69
2022/06/07 01:10:46;;;;;;;0.30;0.30;;;15.40;99.90;;;;;;5117253;28;20199;-69
2022/06/07 01:13:17;;;;;;;0.30;0.30;;;15.40;99.90;;;;;;5117311;28;20845;-68
2022/06/07 01:15:46;;;;;;;0.30;0.30;;;15.40;99.90;;;;;;5117316;28;20764;-68
2022/06/07 01:18:13;;;;;;;0.30;0.30;;;15.40;99.90;;;;;;5117307;28;20483;-68
2022/06/07 01:20:40;;;;;;;0.30;0.30;;;15.40;99.90;;;;;;5116909;28;20404;-70
2022/06/07 01:23:07;;;;;;;0.30;0.30;;;15.50;99.90;;;;;;5116573;28;20444;-70
2022/06/07 01:25:33;;;;;;;0.30;0.30;;;15.40;99.90;;;;;;5116972;28;20760;-68
2022/06/07 01:27:58;;;;;;;0.30;0.30;;;15.40;99.90;;;;;;5116759;28;20944;-69
2022/06/07 01:30:25;;;;;;;0.30;0.30;;;15.40;99.90;;;;;;5117116;28;20406;-69
2022/06/07 01:32:51;;;;;;;0.40;0.40;;;15.40;99.90;;;;;;5116619;28;20187;-68
2022/06/07 01:35:17;;;;;;;0.40;0.40;;;15.40;99.90;;;;;;5116493;28;20546;-70
2022/06/07 01:37:43;;;;;;;0.30;0.30;;;15.30;99.90;;;;;;5116711;28;20875;-69
2022/06/07 01:42:53;;;;;;;0.30;0.30;;;15.40;99.90;;;;;;5116721;28;20196;-70
2022/06/07 01:45:20;;;;;;;0.30;0.30;;;15.30;99.90;;;;;;5116694;28;20402;-70
2022/06/07 01:47:45;;;;;;;0.30;0.30;;;15.30;99.90;;;;;;5116550;27;20288;-68
2022/06/07 01:50:11;;;;;;;0.30;0.30;;;15.30;99.90;;;;;;5116848;28;20405;-69
2022/06/07 01:52:37;;;;;;;0.30;0.30;;;15.30;99.90;;;;;;5116375;28;20176;-68
2022/06/07 01:55:05;;;;;;;0.30;0.30;;;15.30;99.90;;;;;;5116435;27;20746;-69
2022/06/07 01:57:31;;;;;;;0.30;0.30;;;15.30;99.90;;;;;;5116415;28;20409;-70
2022/06/07 01:59:58;;;;;;;0.30;0.30;;;15.20;99.90;;;;;;5116435;28;20400;-69
2022/06/07 02:02:24;;;;;;;0.30;0.30;;;15.20;99.90;;;;;;5116411;28;20234;-69
2022/06/07 02:04:51;;;;;;;0.30;0.30;;;15.10;99.90;;;;;;5116161;28;20408;-69
2022/06/07 02:07:19;;;;;;;0.40;0.40;;;15.10;99.90;;;;;;5116215;28;20816;-68
2022/06/07 02:09:45;;;;;;;0.30;0.30;;;15.10;99.90;;;;;;5115977;28;20487;-69
2022/06/07 02:12:11;;;;;;;0.30;0.30;;;15.20;99.90;;;;;;5115875;28;20421;-69
2022/06/07 02:14:39;;;;;;;0.30;0.30;;;15.20;99.90;;;;;;5116125;28;20901;-69
2022/06/07 02:17:05;;;;;;;0.30;0.30;;;15.20;99.90;;;;;;5116137;28;20413;-67
2022/06/07 02:19:31;;;;;;;0.30;0.30;;;15.10;99.90;;;;;;5116269;28;20398;-69
2022/06/07 02:21:56;;;;;;;0.30;0.30;;;15.20;99.90;;;;;;5115849;28;20434;-68
2022/06/07 02:24:22;;;;;;;0.30;0.30;;;15.20;99.90;;;;;;5115676;28;20190;-69
2022/06/07 02:27:02;;;;;;;0.50;0.50;;;15.20;99.90;;;;;;5115794;28;20189;-69
2022/06/07 02:29:33;;;;;;;0.30;0.30;;;15.20;99.90;;;;;;5115935;28;20164;-69
2022/06/07 02:32:11;;;;;;;0.30;0.30;;;15.20;99.90;;;;;;5115738;28;20933;-69
2022/06/07 02:34:41;;;;;;;0.30;0.30;;;15.20;99.90;;;;;;5115972;28;20394;-70
2022/06/07 02:37:07;;;;;;;0.30;0.30;;;15.20;99.90;;;;;;5115784;27;20398;-68
2022/06/07 02:39:35;;;;;;;0.40;0.40;;;15.30;99.90;;;;;;5115633;28;20425;-69
2022/06/07 02:42:05;;;;;;;0.30;0.30;;;15.20;99.90;;;;;;5115412;28;20902;-69
2022/06/07 02:44:31;;;;;;;0.30;0.30;;;15.20;99.90;;;;;;5115301;28;20491;-69
2022/06/07 02:46:56;;;;;;;0.30;0.30;;;15.20;99.90;;;;;;5114770;28;20549;-69
2022/06/07 02:49:22;;;;;;;0.30;0.30;;;15.30;99.90;;;;;;5115462;28;20753;-70
2022/06/07 02:51:48;;;;;;;0.30;0.30;;;15.20;99.90;;;;;;5115380;28;20200;-69
2022/06/07 02:54:13;;;;;;;0.30;0.30;;;15.20;99.90;;;;;;5115186;28;20174;-68
2022/06/07 02:56:39;;;;;;;0.30;0.30;;;15.20;99.90;;;;;;5115090;28;20166;-69
2022/06/07 02:59:05;;;;;;;0.40;0.40;;;15.20;99.90;;;;;;5115285;28;20200;-68
2022/06/07 03:01:31;;;;;;;0.50;0.50;;;15.20;99.90;;;;;;5114995;28;20197;-69
2022/06/07 03:03:58;;;;;;;0.30;0.30;;;15.20;99.90;;;;;;5114954;28;20561;-69
2022/06/07 03:06:24;;;;;;;0.47;0.47;;;15.10;99.90;;;;;;5115091;28;20395;-68
2022/06/07 03:08:50;;;;;;;0.30;0.30;;;15.10;99.90;;;;;;5115073;28;20751;-68
2022/06/07 03:11:16;;;;;;;0.30;0.30;;;15.10;99.90;;;;;;5114790;28;20394;-70
2022/06/07 03:13:41;;;;;;;0.30;0.30;;;15.10;99.90;;;;;;5114672;28;20405;-68
2022/06/07 03:16:07;;;;;;;0.30;0.30;;;15.20;99.90;;;;;;5114826;27;20227;-69
2022/06/07 03:18:33;;;;;;;0.30;0.30;;;15.20;99.90;;;;;;5114927;28;20251;-68
2022/06/07 03:20:58;;;;;;;0.30;0.30;;;15.20;99.90;;;;;;5114840;28;20589;-68
2022/06/07 03:23:24;;;;;;;0.30;0.30;;;15.30;99.90;;;;;;5114221;28;20204;-70
2022/06/07 03:25:50;;;;;;;0.30;0.30;;;15.30;99.90;;;;;;5114588;28;20227;-69
2022/06/07 03:28:15;;;;;;;0.30;0.30;;;15.20;99.90;;;;;;5114452;28;20198;-69
2022/06/07 03:30:41;;;;;;;0.30;0.30;;;15.20;99.90;;;;;;5114739;28;20174;-69
2022/06/07 03:33:07;;;;;;;0.30;0.30;;;15.20;99.90;;;;;;5114449;28;20697;-69
2022/06/07 03:35:33;;;;;;;0.30;0.30;;;15.20;99.90;;;;;;5114589;28;20892;-70
2022/06/07 03:37:59;;;;;;;0.30;0.30;;;15.30;99.90;;;;;;5114450;28;20168;-70
2022/06/07 03:40:43;;;;;;;0.30;0.30;;;15.20;99.90;;;;;;5114369;28;20919;-69
2022/06/07 03:43:08;;;;;;;0.30;0.30;;;15.30;99.90;;;;;;5114234;28;20194;-70
2022/06/07 03:45:34;;;;;;;0.30;0.30;;;15.20;99.90;;;;;;5114448;28;20407;-69
2022/06/07 03:48:00;;;;;;;0.30;0.30;;;15.10;99.90;;;;;;5114307;28;20694;-69
2022/06/07 03:50:26;;;;;;;0.30;0.30;;;15.10;99.90;;;;;;5114120;28;20386;-69
2022/06/07 03:52:52;;;;;;;0.30;0.30;;;15.10;99.90;;;;;;5114114;28;20194;-70
2022/06/07 03:55:17;;;;;;;0.30;0.30;;;15.10;99.90;;;;;;5114180;28;20208;-69
2022/06/07 03:57:43;;;;;;;0.40;0.40;;;15.20;99.90;;;;;;5113229;28;20173;-69
2022/06/07 04:00:10;;;;;;;0.40;0.40;;;15.00;99.90;;;;;;5114332;28;20199;-69
2022/06/07 04:02:36;;;;;;;0.30;0.30;;;15.00;99.90;;;;;;5114036;28;20184;-69
2022/06/07 04:05:02;;;;;;;0.30;0.30;;;15.00;99.90;;;;;;5114181;28;20403;-69
2022/06/07 04:10:12;;;;;;;0.30;0.30;;;15.10;99.90;;;;;;5114057;28;20393;-70
2022/06/07 04:12:37;;;;;;;0.40;0.40;;;15.10;99.90;;;;;;5113868;28;20416;-69
2022/06/07 04:15:03;;;;;;;0.30;0.30;;;15.20;99.90;;;;;;5114092;28;20251;-68
2022/06/07 04:17:29;;;;;;;0.30;0.30;;;15.10;99.90;;;;;;5114117;28;20524;-70
2022/06/07 04:19:54;;;;;;;0.30;0.30;;;15.20;99.90;;;;;;5114550;28;20398;-70
2022/06/07 04:22:20;;;;;;;0.30;0.30;;;15.20;99.90;;;;;;5113784;28;20196;-69
2022/06/07 04:24:46;;;;;;;0.30;0.30;;;15.20;99.90;;;;;;5113942;28;20630;-70
2022/06/07 04:27:12;;;;;;;0.30;0.30;;;15.20;99.90;;;;;;5113856;28;20184;-69
2022/06/07 04:29:37;;;;;;;0.30;0.30;;;15.20;99.90;;;;;;5113964;28;20177;-69
2022/06/07 04:32:03;;;;;;;0.60;0.60;;;15.20;99.90;;;;;;5113600;28;20185;-69
2022/06/07 04:34:29;;;;;;;1.60;1.57;;;15.20;99.90;;;;;;5113821;28;20518;-69
2022/06/07 04:36:55;;;;;;;0.30;0.30;;;15.20;99.90;;;;;;5113941;28;20402;-70
2022/06/07 04:39:20;;;;;;;0.30;0.30;;;15.30;99.90;;;;;;5112462;28;20403;-68
2022/06/07 04:41:46;;;;;;;0.30;0.30;;;15.30;99.90;;;;;;5113655;28;20330;-69
2022/06/07 04:44:12;;;;;;;0.63;0.63;;;15.30;99.90;;;;;;5113473;28;20517;-69
2022/06/07 04:46:37;;;;;;;0.30;0.30;;;15.30;99.90;;;;;;5113727;28;20175;-70
2022/06/07 04:49:03;;;;;;;0.30;0.30;;;15.20;99.90;;;;;;5114049;28;20165;-69
2022/06/07 04:51:33;;;;;;;0.30;0.30;;;15.20;99.90;;;;;;5113455;28;20254;-68
2022/06/07 04:54:00;;;;;;;0.30;0.30;;;15.30;99.90;;;;;;5113555;28;20809;-69
2022/06/07 04:56:31;;;;;;;0.30;0.30;;;15.40;99.90;;;;;;5113597;28;20401;-69
2022/06/07 04:58:58;;;;;;;0.30;0.30;;;15.40;99.90;;;;;;5113737;28;20402;-69
2022/06/07 05:01:30;;;;;;;0.30;0.30;;;15.20;99.90;;;;;;5113594;28;20401;-70
2022/06/07 05:03:56;;;;;;;0.30;0.30;;;15.40;99.90;;;;;;5113456;28;20450;-70
2022/06/07 05:06:31;;;;;;;0.30;0.30;;;15.30;99.90;;;;;;5113347;28;20400;-69
2022/06/07 05:09:00;;;;;;;0.30;0.30;;;15.20;99.90;;;;;;5115161;28;20395;-69
2022/06/07 05:11:27;;;;;;;0.40;0.40;;;15.20;99.90;;;;;;5117386;28;20443;-68
2022/06/07 05:13:54;;;;;;;0.30;0.30;;;15.30;99.90;;;;;;5116966;28;20807;-69
2022/06/07 05:16:21;;;;;;;0.30;0.30;;;15.20;99.90;;;;;;5117324;28;20492;-70
2022/06/07 05:18:54;;;;;;;0.30;0.30;;;15.20;99.90;;;;;;5117064;28;20416;-69
2022/06/07 05:21:22;;;;;;;0.30;0.30;;;15.30;99.90;;;;;;5117050;28;20413;-69
2022/06/07 05:23:48;;;;;;;0.30;0.30;;;15.40;99.90;;;;;;5116651;28;20437;-70
2022/06/07 05:26:19;;;;;;;0.30;0.30;;;15.40;99.90;;;;;;5117101;28;20409;-69
2022/06/07 05:28:45;;;;;;;1.47;0.93;;;15.50;99.90;;;;;;5116759;28;20809;-70
2022/06/07 05:31:11;;;;;;;0.63;0.63;;;15.60;99.90;;;;;;5116723;28;20396;-70
2022/06/07 05:33:36;;;;;;;0.30;0.30;;;15.60;99.90;;;;;;5116678;28;20178;-70
2022/06/07 05:36:03;;;;;;;0.53;0.53;;;15.60;99.90;;;;;;5116673;28;20759;-70
2022/06/07 05:38:29;;;;;;;0.30;0.30;;;15.60;99.90;;;;;;5116774;28;20262;-69
2022/06/07 05:40:55;;;;;;;0.30;0.30;;;15.70;99.90;;;;;;5116745;28;20409;-68
2022/06/07 05:43:21;;;;;;;0.30;0.30;;;15.70;99.90;;;;;;5116310;28;20431;-69
2022/06/07 05:45:48;;;;;;;0.30;0.30;;;15.70;99.90;;;;;;5116597;28;20530;-69
2022/06/07 05:48:14;;;;;;;0.30;0.30;;;15.70;99.90;;;;;;5116656;27;20199;-68
2022/06/07 05:50:40;;;;;;;0.30;0.30;;;15.60;99.90;;;;;;5116662;28;20402;-70
2022/06/07 05:53:05;;;;;;;0.30;0.30;;;15.60;99.90;;;;;;5116160;28;20478;-70
2022/06/07 05:55:31;;;;;;;0.30;0.30;;;15.50;99.90;;;;;;5116329;28;20587;-70
2022/06/07 05:57:57;;;;;;;0.30;0.30;;;15.50;99.90;;;;;;5116293;28;20185;-70
2022/06/07 06:00:24;;;;;;;0.30;0.30;;;15.70;99.90;;;;;;5116296;28;20663;-69
2022/06/07 06:02:50;;;;;;;0.30;0.30;;;15.90;99.90;;;;;;5115994;28;20199;-69
2022/06/07 06:05:17;;;;;;;0.30;0.30;;;15.80;99.90;;;;;;5116305;28;20432;-70
2022/06/07 06:10:27;;;;;;;0.30;0.30;;;15.80;99.90;;;;;;5116106;28;20763;-69
2022/06/07 06:12:53;;;;;;;0.30;0.30;;;15.60;99.90;;;;;;5115826;28;20418;-69
2022/06/07 06:15:19;;;;;;;0.30;0.30;;;15.60;99.90;;;;;;5115925;28;20355;-69
2022/06/07 06:17:45;;;;;;;0.30;0.30;;;15.70;99.90;;;;;;5116013;28;20175;-69
2022/06/07 06:20:11;;;;;;;0.30;0.30;;;15.80;99.90;;;;;;5114891;28;20413;-70
2022/06/07 06:22:37;;;;;;;0.30;0.30;;;15.80;99.90;;;;;;5115496;28;20213;-70
2022/06/07 06:25:04;;;;;;;0.30;0.30;;;15.80;99.90;;;;;;5115919;28;20415;-70
2022/06/07 06:27:30;;;;;;;0.30;0.30;;;15.80;99.90;;;;;;5115680;28;20938;-68
2022/06/07 06:29:56;;;;;;;0.30;0.30;;;15.80;99.90;;;;;;5115932;28;20401;-70
2022/06/07 06:32:22;;;;;;;0.30;0.30;;;15.80;99.90;;;;;;5115590;28;20277;-68
2022/06/07 06:34:47;;;;;;;0.30;0.30;;;15.70;99.90;;;;;;5115676;28;20210;-70
2022/06/07 06:37:13;;;;;;;0.30;0.30;;;15.70;99.90;;;;;;5115665;28;20189;-69
2022/06/07 06:39:39;;;;;;;0.30;0.30;;;15.70;99.90;;;;;;5114259;28;20183;-69
2022/06/07 06:42:05;;;;;;;0.30;0.30;;;15.60;99.90;;;;;;5115320;28;20196;-70
2022/06/07 06:44:31;;;;;;;0.40;0.40;;;15.60;99.90;;;;;;5115677;28;20527;-69
2022/06/07 06:46:57;;;;;;;0.30;0.30;;;15.60;99.90;;;;;;5115507;28;20547;-69
2022/06/07 06:49:24;;;;;;;0.30;0.30;;;15.70;99.90;;;;;;5115467;28;20198;-70
2022/06/07 06:51:50;;;;;;;0.30;0.30;;;15.70;99.90;;;;;;5115190;28;21051;-69
2022/06/07 06:54:17;;;;;;;0.30;0.30;;;15.90;99.90;;;;;;5115027;28;20412;-70
2022/06/07 06:56:43;;;;;;;0.30;0.30;;;16.00;99.90;;;;;;5115192;28;20979;-70
2022/06/07 06:59:09;;;;;;;0.40;0.40;;;16.10;99.90;;;;;;5115215;28;20487;-70
2022/06/07 07:01:38;;;;;;;0.30;0.30;;;16.20;99.90;;;;;;5114935;28;20424;-70
2022/06/07 07:04:07;;;;;;;0.30;0.30;;;16.40;99.90;;;;;;5115031;28;20398;-68
2022/06/07 07:06:33;;;;;;;0.30;0.30;;;16.40;99.90;;;;;;5115082;28;20398;-70
2022/06/07 07:09:00;;;;;;;0.40;0.40;;;16.70;99.90;;;;;;5115143;28;20413;-69
2022/06/07 07:11:32;;;;;;;0.40;0.40;;;16.70;99.90;;;;;;5114844;28;20402;-70
2022/06/07 07:13:59;;;;;;;0.30;0.30;;;16.90;99.90;;;;;;5114897;28;20511;-69
2022/06/07 07:16:27;;;;;;;0.30;0.30;;;16.80;99.90;;;;;;5114919;28;20401;-69
2022/06/07 07:18:54;;;;;;;0.30;0.30;;;17.00;99.90;;;;;;5114891;28;20406;-68
2022/06/07 07:21:24;;;;;;;0.70;0.70;;;16.80;99.90;;;;;;5114584;28;20410;-69
2022/06/07 07:23:50;;;;;;;0.30;0.30;;;16.80;99.90;;;;;;5114471;28;20968;-68
2022/06/07 07:26:22;;;;;;;0.30;0.30;;;16.80;99.90;;;;;;5114681;28;20406;-69
2022/06/07 07:28:49;;;;;;;0.30;0.30;;;17.00;99.90;;;;;;5114398;28;20457;-68
2022/06/07 07:31:18;;;;;;;0.30;0.30;;;17.00;99.90;;;;;;5114404;28;20486;-69
2022/06/07 07:33:45;;;;;;;0.40;0.40;;;17.20;99.90;;;;;;5114284;28;20402;-69
2022/06/07 07:36:11;;;;;;;0.30;0.30;;;17.20;99.90;;;;;;5114431;28;20405;-69
2022/06/07 07:38:38;;;;;;;0.30;0.30;;;17.30;99.90;;;;;;5114650;28;20394;-70
2022/06/07 07:41:13;;;;;;;0.30;0.30;;;17.50;99.90;;;;;;5114468;28;20394;-68
2022/06/07 07:43:39;;;;;;;0.30;0.30;;;17.60;99.90;;;;;;5114222;28;20387;-70
2022/06/07 07:46:05;;;;;;;0.30;0.30;;;17.80;99.90;;;;;;5114427;28;20414;-70
2022/06/07 07:48:31;;;;;;;0.30;0.30;;;18.40;99.90;;;;;;5114388;28;20202;-69
2022/06/07 07:51:05;;;;;;;0.30;0.30;;;19.10;98.90;;;;;;5114374;28;20406;-69
2022/06/07 07:53:32;;;;;;;0.50;0.50;;;19.30;98.90;;;;;;5113946;28;20273;-70
2022/06/07 07:55:57;;;;;;;0.30;0.30;;;19.10;96.10;;;;;;5114296;28;20407;-70
2022/06/07 07:58:23;;;;;;;0.37;0.37;;;19.00;97.00;;;;;;5114226;28;20475;-70
2022/06/07 08:00:50;;;;;;;0.30;0.30;;;19.20;97.90;;;;;;5114608;28;20212;-69
2022/06/07 08:03:18;;;;;;;0.40;0.40;;;19.10;98.40;;;;;;5113906;28;20189;-69
2022/06/07 08:05:43;;;;;;;0.30;0.30;;;19.10;97.90;;;;;;5114567;28;20432;-70
2022/06/07 08:08:10;;;;;;;0.30;0.30;;;19.00;97.30;;;;;;5114130;28;20958;-70
2022/06/07 08:10:37;;;;;;;0.30;0.30;;;18.80;98.20;;;;;;5114155;28;20191;-70
2022/06/07 08:13:03;;;;;;;0.40;0.40;;;18.70;98.20;;;;;;5113675;28;20977;-69
2022/06/07 08:15:32;;;;;;;0.60;0.50;;;18.50;97.10;;;;;;5113886;28;20450;-70
2022/06/07 08:18:01;;;;;;;0.30;0.30;;;18.40;97.50;;;;;;5114152;28;20416;-68
2022/06/07 08:20:29;;;;;;;0.30;0.30;;;18.30;97.00;;;;;;5114106;28;20545;-69
2022/06/07 08:22:55;;;;;;;0.30;0.30;;;18.30;98.30;;;;;;5113631;28;20490;-68
2022/06/07 08:25:21;;;;;;;0.50;0.50;;;18.50;97.80;;;;;;5114007;28;20489;-69
2022/06/07 08:27:47;;;;;;;0.30;0.30;;;18.70;98.10;;;;;;5113727;28;20452;-70
2022/06/07 08:30:14;;;;;;;0.30;0.30;;;18.90;99.00;;;;;;5114035;28;20409;-68
2022/06/07 08:32:40;;;;;;;0.37;0.37;;;19.20;98.50;;;;;;5113590;28;20431;-70
2022/06/07 08:37:50;;;;;;;0.30;0.30;;;19.90;96.60;;;;;;5114271;28;20449;-68
2022/06/07 08:40:30;;;;;;;0.30;0.30;;;19.90;95.80;;;;;;5113857;28;20867;-70
2022/06/07 08:42:58;;;;;;;0.30;0.30;;;19.30;95.70;;;;;;5113921;28;20201;-70
2022/06/07 08:45:44;;;;;;;0.30;0.30;;;19.10;97.80;;;;;;5117805;28;20753;-69
2022/06/07 08:48:18;;;;;;;0.30;0.30;;;18.90;95.60;;;;;;5117573;28;20544;-70
2022/06/07 08:51:04;;;;;;;0.30;0.30;;;18.50;96.40;;;;;;5117827;28;20414;-70
2022/06/07 08:53:36;;;;;;;0.30;0.30;;;18.40;96.80;;;;;;5117345;28;20423;-69
2022/06/07 08:56:15;;;;;;;0.40;0.40;;;18.40;97.90;;;;;;5117789;28;20402;-68
2022/06/07 08:58:44;;;;;;;0.43;0.40;;;18.30;98.40;;;;;;5117693;28;20408;-70
2022/06/07 09:01:34;;;;;;;0.30;0.30;;;18.00;98.70;;;;;;5117429;28;20463;-68
2022/06/07 09:04:21;;;;;;;0.30;0.30;;;17.90;99.60;;;;;;5117294;28;20417;-70
2022/06/07 09:06:55;;;;;;;0.30;0.30;;;17.80;99.00;;;;;;5117528;28;20417;-69
2022/06/07 09:09:23;;;;;;;0.30;0.30;;;17.80;98.90;;;;;;5117447;28;20420;-69
2022/06/07 09:12:14;;;;;;;0.30;0.30;;;17.90;98.80;;;;;;5117363;28;20500;-68
2022/06/07 09:14:45;;;;;;;0.40;0.40;;;18.10;99.10;;;;;;5117511;28;20402;-69
2022/06/07 09:17:15;;;;;;;0.30;0.30;;;18.20;99.80;;;;;;5117396;28;20411;-69
2022/06/07 09:19:45;;;;;;;0.30;0.30;;;18.40;99.90;;;;;;5117047;28;20469;-69
2022/06/07 09:22:22;;;;;;;0.30;0.30;;;18.70;99.10;;;;;;5116689;28;20970;-68
2022/06/07 09:25:21;;;;;;;0.30;0.30;;;19.00;99.40;;;;;;5117050;28;20401;-69
2022/06/07 09:27:47;;;;;;;0.30;0.30;;;19.30;99.60;;;;;;5115712;28;21072;-69
2022/06/07 09:30:15;;;;;;;0.30;0.30;;;19.50;97.00;;;;;;5117029;28;20402;-69
2022/06/07 09:32:41;;;;;;;0.30;0.30;;;19.50;96.30;;;;;;5116819;28;20219;-69
2022/06/07 09:35:15;;;;;;;0.30;0.30;;;19.20;97.10;;;;;;5117133;28;20405;-70
2022/06/07 09:37:50;;;;;;;0.30;0.30;;;18.60;97.80;;;;;;5116882;28;20170;-68
2022/06/07 09:40:37;;;;;;;0.30;0.30;;;18.60;98.20;;;;;;5116835;28;20482;-69
2022/06/07 09:43:11;;;;;;;0.30;0.30;;;18.50;99.30;;;;;;5116396;28;20417;-69
2022/06/07 09:45:46;;;;;;;0.30;0.30;;;18.60;99.90;;;;;;5117009;28;20895;-69
2022/06/07 09:48:37;;;;;;;0.30;0.30;;;18.70;99.60;;;;;;5116704;28;20472;-70
2022/06/07 09:51:22;;;;;;;0.30;0.30;;;18.60;98.90;;;;;;5116704;28;20447;-69
2022/06/07 09:54:02;;;;;;;0.30;0.30;;;18.60;99.40;;;;;;5116307;28;20413;-68
2022/06/07 09:57:08;;;;;;;0.30;0.30;;;18.50;99.90;;;;;;5116594;28;20407;-68
2022/06/07 10:00:04;;;;;;;0.40;0.40;;;18.20;99.30;;;;;;5107183;28;20834;-68
2022/06/07 10:02:42;;;;;;;0.30;0.30;;;18.40;99.90;;;;;;5107321;28;20436;-69
2022/06/07 10:05:15;;;;;;;0.30;0.30;;;18.60;99.90;;;;;;5116400;28;20410;-68
2022/06/07 10:08:07;;;;;;;0.30;0.30;;;18.70;99.50;;;;;;5116256;28;20450;-70
2022/06/07 10:11:04;;;;;;;0.30;0.30;;;18.60;99.50;;;;;;5116165;28;20409;-69
2022/06/07 10:13:41;;;;;;;0.30;0.30;;;18.50;99.30;;;;;;5107511;28;20478;-69
2022/06/07 10:16:20;;;;;;;0.30;0.30;;;18.60;99.90;;;;;;5116388;28;20406;-68
2022/06/07 10:18:49;;;;;;;0.30;0.30;;;18.60;99.30;;;;;;5116145;28;20457;-69
2022/06/07 10:21:28;;;;;;;0.30;0.30;;;18.70;99.10;;;;;;5115867;28;20422;-69
2022/06/07 10:24:12;;;;;;;0.30;0.30;;;18.50;99.30;;;;;;5115583;28;20428;-68
2022/06/07 10:27:17;;;;;;;0.30;0.30;;;18.20;99.70;;;;;;5115687;28;20508;-69
2022/06/07 10:30:19;;;;;;;0.30;0.30;;;17.90;99.90;;;;;;5115379;28;20423;-70
2022/06/07 10:33:06;;;;;;;0.30;0.30;;;17.80;99.90;;;;;;5115374;28;20422;-69
2022/06/07 10:36:27;;;;;;;0.30;0.30;;;18.10;99.90;;;;;;5115692;28;20396;-70
2022/06/07 10:39:17;;;;;;;0.30;0.30;;;18.10;99.90;;;;;;5109710;28;20451;-70
2022/06/07 10:42:25;;;;;;;0.30;0.30;;;18.60;99.90;;;;;;5115631;28;20417;-69
2022/06/07 10:45:14;;;;;;;0.40;0.40;;;19.00;99.90;;;;;;5115577;28;20401;-69
2022/06/07 10:48:22;;;;;;;0.30;0.30;;;19.50;99.60;;;;;;5115746;28;20457;-69
2022/06/07 10:54:53;;;;;;;0.30;0.30;;;19.80;98.40;;;;;;5115108;28;20576;-69
2022/06/07 10:57:21;;;;;;;0.40;0.40;;;19.50;97.50;;;;;;5072617;28;20872;-69
2022/06/07 10:59:50;;;;;;;0.30;0.30;;;20.10;98.40;;;;;;5072566;28;20843;-68
2022/06/07 11:02:28;;;;;;;0.30;0.30;;;20.50;98.20;;;;;;5094612;28;20486;-70
2022/06/07 11:11:18;;;;;;;0.30;0.30;;;21.90;97.20;;;;;;5115053;28;20396;-69
2022/06/07 11:13:49;;;;;;;0.30;0.30;;;21.70;97.50;;;;;;5114894;28;20408;-69
2022/06/07 11:16:33;;;;;;;0.40;0.40;;;21.80;94.70;;;;;;5114947;28;20399;-68
2022/06/07 11:19:03;;;;;;;0.30;0.30;;;21.90;98.10;;;;;;5115218;28;20401;-70
2022/06/07 11:21:36;;;;;;;0.30;0.30;;;21.80;96.90;;;;;;5114951;28;20411;-68
2022/06/07 11:24:06;;;;;;;0.30;0.30;;;22.00;94.90;;;;;;5114552;28;20478;-70
2022/06/07 11:26:50;;;;;;;0.30;0.30;;;21.70;95.10;;;;;;5114765;28;20412;-70
2022/06/07 11:29:21;;;;;;;0.30;0.30;;;21.80;95.70;;;;;;5114538;28;20409;-70
2022/06/07 11:31:47;;;;;;;0.30;0.30;;;22.00;96.10;;;;;;5114796;28;20449;-70
2022/06/07 11:34:23;;;;;;;0.73;0.73;;;22.10;94.30;;;;;;5114373;28;20401;-70
2022/06/07 11:37:09;;;;;;;0.50;0.50;;;22.10;94.30;;;;;;5114540;28;20467;-68
2022/06/07 11:39:38;;;;;;;0.40;0.40;;;21.90;93.70;;;;;;5102359;28;20494;-69
2022/06/07 11:42:06;;;;;;;0.30;0.30;;;21.60;91.40;;;;;;5114084;28;20395;-70
2022/06/07 11:44:55;;;;;;;0.40;0.40;;;21.90;95.40;;;;;;5114555;28;20401;-70
2022/06/07 11:47:25;;;;;;;0.40;0.40;;;22.00;95.70;;;;;;5114352;28;20819;-69
2022/06/07 11:49:51;;;;;;;0.30;0.30;;;22.10;95.10;;;;;;5114235;28;20417;-69
2022/06/07 11:52:24;;;;;;;0.30;0.30;;;22.00;92.30;;;;;;5114163;28;20485;-70
2022/06/07 11:54:57;;;;;;;0.30;0.30;;;22.00;92.50;;;;;;5114406;28;20245;-69
2022/06/07 11:57:31;;;;;;;0.30;0.30;;;22.10;92.10;;;;;;5114428;28;20464;-68
2022/06/07 12:00:20;;;;;;;0.30;0.30;;;21.80;94.90;;;;;;5114256;28;20879;-70
2022/06/07 12:02:57;;;;;;;0.30;0.30;;;21.40;93.20;;;;;;5114026;28;20827;-70
2022/06/07 12:05:28;;;;;;;0.30;0.30;;;21.20;94.90;;;;;;5114129;28;20408;-70
2022/06/07 12:08:02;;;;;;;0.30;0.30;;;21.30;95.90;;;;;;5114191;28;20447;-70
2022/06/07 12:10:33;;;;;;;0.30;0.30;;;21.30;94.40;;;;;;5114211;28;20487;-70
2022/06/07 12:13:01;;;;;;;0.30;0.30;;;21.10;94.80;;;;;;5113897;28;20426;-69
2022/06/07 12:15:46;;;;;;;0.30;0.30;;;20.80;93.60;;;;;;5113865;28;20398;-69
2022/06/07 12:18:23;;;;;;;0.30;0.30;;;20.60;94.90;;;;;;5114611;28;20462;-69
2022/06/07 12:21:04;;;;;;;0.30;0.30;;;20.90;96.40;;;;;;5118211;28;20429;-70
2022/06/07 12:23:34;;;;;;;0.30;0.30;;;21.00;95.70;;;;;;5117893;28;20573;-69
2022/06/07 12:26:01;;;;;;;0.30;0.30;;;21.00;94.20;;;;;;5118440;28;20758;-69
2022/06/07 12:28:33;;;;;;;0.30;0.30;;;21.10;94.70;;;;;;5118182;28;20529;-69
2022/06/07 12:31:15;;;;;;;0.30;0.30;;;21.30;94.00;;;;;;5118234;28;20821;-69
2022/06/07 12:33:50;;;;;;;0.30;0.30;;;21.70;93.50;;;;;;5117916;28;20393;-70
2022/06/07 12:36:22;;;;;;;0.30;0.30;;;21.90;93.40;;;;;;5118166;28;20438;-69
2022/06/07 12:38:49;;;;;;;0.30;0.30;;;21.80;91.60;;;;;;5118086;28;20415;-69
2022/06/07 12:41:23;;;;;;;0.30;0.30;;;21.50;93.20;;;;;;5117987;28;20429;-70
2022/06/07 12:43:57;;;;;;;0.30;0.30;;;21.30;93.20;;;;;;5117583;28;20401;-70
2022/06/07 12:46:42;;;;;;;0.30;0.30;;;21.00;92.40;;;;;;5117995;28;20403;-69
2022/06/07 12:49:23;;;;;;;0.50;0.50;;;20.90;93.30;;;;;;5117624;28;20401;-70
2022/06/07 12:52:01;;;;;;;0.30;0.30;;;20.80;94.10;;;;;;5117672;28;20407;-70
2022/06/07 12:54:28;;;;;;;0.30;0.30;;;20.50;93.40;;;;;;5118045;28;20704;-69
2022/06/07 12:56:58;;;;;;;0.30;0.30;;;20.30;93.80;;;;;;5117635;28;20391;-68
2022/06/07 12:59:33;;;;;;;0.40;0.40;;;20.00;95.00;;;;;;5117752;28;20382;-69
2022/06/07 13:01:59;;;;;;;0.30;0.30;;;19.60;95.30;;;;;;5117297;28;20420;-68
2022/06/07 13:04:45;;;;;;;0.30;0.30;;;19.20;97.10;;;;;;5117498;28;20443;-68
2022/06/07 13:07:24;;;;;;;0.30;0.30;;;18.80;96.30;;;;;;5117459;28;20195;-68
2022/06/07 13:09:59;;;;;;;0.30;0.30;;;18.60;98.70;;;;;;5117526;28;20396;-70
2022/06/07 13:12:40;;;;;;;0.30;0.30;;;18.10;97.50;;;;;;5117243;28;20425;-69
2022/06/07 13:15:15;;;;;;;0.30;0.30;;;17.70;99.30;;;;;;5117379;28;20396;-69
2022/06/07 13:17:52;;;;;;;0.30;0.30;;;17.50;98.60;;;;;;5117149;28;20400;-68
2022/06/07 13:20:45;;;;;;;0.30;0.30;;;17.10;99.90;;;;;;5117481;28;20510;-69
2022/06/07 13:23:38;;;;;;;0.30;0.30;;;17.10;99.90;;;;;;5115029;28;20461;-69
2022/06/07 13:26:20;;;;;;;0.30;0.30;;;17.10;99.90;;;;;;5117196;28;20447;-69
2022/06/07 13:28:48;;;;;;;0.30;0.30;;;17.30;99.90;;;;;;5116970;28;20441;-69
2022/06/07 13:31:49;;;;;;;0.30;0.30;;;17.60;99.90;;;;;;5116797;28;20459;-68